Time;durP1;ratioP1;P1;durP2;ratioP2;P2;SDS_P1;SDS_P2;PMS_P1;PMS_P2;Temp;Humidity;BMP_temperature;BMP_pressure;BME280_temperature;BME280_humidity;BME280_pressure;Samples;Min_cycle;Max_cycle;Signal;HPM_P1;HPM_P2
2023/04/13 00:01:18;;;;;;;0.90;0.47;;;;;;;12.00;63.43;101332.56;4986113;28;20061;-75
2023/04/13 00:03:47;;;;;;;0.82;0.40;;;;;;;12.02;62.13;101328.28;4989754;28;20050;-74
2023/04/13 00:06:15;;;;;;;0.45;0.30;;;;;;;11.95;62.55;101328.09;4985597;28;20064;-75
2023/04/13 00:08:45;;;;;;;0.47;0.45;;;;;;;11.87;64.01;101328.66;4991221;28;20060;-72
2023/04/13 00:11:14;;;;;;;0.40;0.40;;;;;;;11.79;61.79;101320.59;4986665;28;20121;-72
2023/04/13 00:13:46;;;;;;;1.17;0.43;;;;;;;11.82;61.31;101325.91;4984664;28;20054;-74
2023/04/13 00:16:17;;;;;;;0.83;0.40;;;;;;;11.93;62.72;101332.38;4985466;28;20151;-74
2023/04/13 00:18:45;;;;;;;0.90;0.45;;;;;;;11.98;62.63;101331.63;4988545;28;20536;-74
2023/04/13 00:21:15;;;;;;;0.17;0.17;;;;;;;12.08;57.48;101331.09;4979792;28;20075;-75
2023/04/13 00:23:44;;;;;;;0.38;0.22;;;;;;;12.17;55.75;101334.00;4978413;28;20213;-76
2023/04/13 00:26:13;;;;;;;0.60;0.43;;;;;;;12.20;58.08;101315.03;4987480;28;20050;-77
2023/04/13 00:28:42;;;;;;;0.30;0.30;;;;;;;12.23;56.21;101318.63;4988085;28;20419;-74
2023/04/13 00:31:11;;;;;;;0.75;0.40;;;;;;;12.31;56.77;101314.53;4987163;28;20055;-75
2023/04/13 00:33:41;;;;;;;0.50;0.43;;;;;;;12.38;57.23;101318.22;4977460;28;20050;-76
2023/04/13 00:36:11;;;;;;;0.30;0.28;;;;;;;12.40;59.67;101321.75;4978958;28;20058;-74
2023/04/13 00:38:43;;;;;;;0.30;0.30;;;;;;;12.14;58.72;101310.56;4985261;28;20050;-82
2023/04/13 00:41:13;;;;;;;0.77;0.50;;;;;;;12.02;57.98;101310.16;4975459;28;20065;-76
2023/04/13 00:43:43;;;;;;;0.85;0.40;;;;;;;11.96;59.02;101313.44;4976814;28;20796;-76
2023/04/13 00:46:15;;;;;;;0.90;0.52;;;;;;;11.79;56.16;101315.41;4981313;28;20054;-75
2023/04/13 00:48:47;;;;;;;0.52;0.43;;;;;;;11.82;56.96;101320.72;4982292;28;20053;-75
2023/04/13 00:51:16;;;;;;;1.20;0.93;;;;;;;11.86;58.33;101317.38;4977340;28;20059;-75
2023/04/13 00:53:45;;;;;;;0.77;0.50;;;;;;;11.79;59.81;101320.59;4987417;28;20054;-75
2023/04/13 00:56:14;;;;;;;0.77;0.40;;;;;;;11.62;60.85;101325.22;4976386;28;20046;-76
2023/04/13 00:58:44;;;;;;;2.70;0.50;;;;;;;11.50;61.83;101320.50;4988755;28;20562;-76
2023/04/13 01:01:13;;;;;;;1.52;0.60;;;;;;;11.46;65.14;101318.63;4986127;28;20063;-77
2023/04/13 01:03:41;;;;;;;0.70;0.70;;;;;;;11.36;63.24;101313.97;4989103;28;20077;-75
2023/04/13 01:06:20;;;;;;;0.75;0.38;;;;;;;11.33;64.02;101316.44;4976504;28;20133;-75
2023/04/13 01:08:54;;;;;;;0.68;0.50;;;;;;;11.30;61.00;101329.28;4972801;28;20086;-74
2023/04/13 01:11:34;;;;;;;0.40;0.40;;;;;;;11.17;63.76;101315.00;4990545;28;20050;-75
2023/04/13 01:14:10;;;;;;;1.33;0.57;;;;;;;11.24;63.78;101329.06;4978126;28;20046;-77
2023/04/13 01:16:43;;;;;;;0.20;0.20;;;;;;;11.26;63.40;101330.00;4976656;28;20527;-74
2023/04/13 01:19:21;;;;;;;0.40;0.40;;;;;;;11.21;63.43;101326.38;4981216;28;20046;-75
2023/04/13 01:21:53;;;;;;;2.90;0.70;;;;;;;11.24;63.63;101329.06;4985244;28;20057;-74
2023/04/13 01:24:33;;;;;;;0.50;0.50;;;;;;;11.20;64.05;101317.72;4985912;28;20066;-75
2023/04/13 01:27:12;;;;;;;1.00;0.50;;;;;;;11.22;63.38;101321.22;4980347;28;20492;-75
2023/04/13 01:29:45;;;;;;;1.33;0.40;;;;;;;11.23;63.20;101319.53;4975071;28;20054;-74
2023/04/13 01:32:16;;;;;;;1.40;0.32;;;;;;;11.09;61.34;101316.44;4982952;28;20567;-75
2023/04/13 01:34:45;;;;;;;0.85;0.50;;;;;;;11.02;61.72;101324.81;4982391;28;20054;-77
2023/04/13 01:37:16;;;;;;;0.70;0.20;;;;;;;10.88;62.75;101306.16;4973849;28;20078;-73
2023/04/13 01:39:45;;;;;;;1.25;0.65;;;;;;;10.86;63.11;101310.44;4986145;28;20050;-74
2023/04/13 01:42:13;;;;;;;0.47;0.30;;;;;;;10.82;62.52;101313.72;4980654;28;20250;-73
2023/04/13 01:44:44;;;;;;;2.15;0.57;;;;;;;10.75;62.87;101306.56;4981055;28;20046;-74
2023/04/13 01:47:19;;;;;;;0.60;0.40;;;;;;;10.71;63.10;101302.94;4985294;28;20449;-74
2023/04/13 01:49:54;;;;;;;1.17;0.70;;;;;;;10.71;63.49;101302.94;4981841;28;20104;-74
2023/04/13 01:52:29;;;;;;;0.95;0.40;;;;;;;10.66;63.05;101302.78;4986305;28;20058;-73
2023/04/13 01:54:59;;;;;;;1.10;0.50;;;;;;;10.59;63.17;101302.50;4977757;28;20058;-74
2023/04/13 01:57:30;;;;;;;0.32;0.25;;;;;;;10.47;64.98;101306.38;4969411;28;20150;-73
2023/04/13 02:00:12;;;;;;;0.32;0.20;;;;;;;10.40;66.22;101299.22;4986574;28;20058;-75
2023/04/13 02:02:41;;;;;;;0.47;0.43;;;;;;;10.37;65.66;101303.38;4975586;28;20145;-74
2023/04/13 02:05:10;;;;;;;1.75;0.40;;;;;;;10.34;66.39;101303.25;4974598;28;20046;-73
2023/04/13 02:07:41;;;;;;;1.58;0.50;;;;;;;10.25;67.56;101299.44;4969032;28;20508;-76
2023/04/13 02:10:11;;;;;;;0.52;0.20;;;;;;;10.23;67.19;101301.09;4985790;28;20057;-73
2023/04/13 02:12:39;;;;;;;0.20;0.20;;;;;;;10.22;68.06;101294.16;4983532;28;20658;-76
2023/04/13 02:15:11;;;;;;;0.40;0.30;;;;;;;10.24;69.00;101292.53;4985914;28;20137;-74
2023/04/13 02:17:40;;;;;;;0.40;0.40;;;;;;;10.34;66.88;101303.25;4977863;28;20046;-74
2023/04/13 02:20:11;;;;;;;0.52;0.30;;;;;;;10.37;66.71;101303.38;4976994;28;20042;-74
2023/04/13 02:22:42;;;;;;;0.50;0.35;;;;;;;10.38;65.13;101306.03;4980864;28;20860;-75
2023/04/13 02:25:14;;;;;;;0.75;0.40;;;;;;;10.39;65.94;101304.31;4986419;28;20132;-74
2023/04/13 02:27:43;;;;;;;1.05;0.70;;;;;;;10.36;65.34;101302.50;4987050;28;20046;-73
2023/04/13 02:30:16;;;;;;;2.90;0.60;;;;;;;10.33;65.76;101301.47;4982140;28;20507;-74
2023/04/13 02:32:48;;;;;;;1.05;0.65;;;;;;;10.31;66.81;101297.94;4986511;28;20506;-75
2023/04/13 02:35:19;;;;;;;0.98;0.40;;;;;;;10.31;66.61;101305.69;4986101;28;20050;-76
2023/04/13 02:37:48;;;;;;;0.43;0.40;;;;;;;10.27;66.01;101302.97;4977991;28;20046;-74
2023/04/13 02:40:23;;;;;;;0.85;0.45;;;;;;;10.23;65.55;101301.09;4991173;28;20124;-73
2023/04/13 02:42:52;;;;;;;0.65;0.32;;;;;;;10.18;66.03;101302.63;4984769;28;20504;-73
2023/04/13 02:45:22;;;;;;;0.52;0.40;;;;;;;10.13;68.17;101306.72;4971734;28;20138;-73
2023/04/13 02:47:51;;;;;;;0.43;0.40;;;;;;;10.05;68.88;101303.81;4986752;28;20144;-75
2023/04/13 02:50:20;;;;;;;0.60;0.40;;;;;;;9.99;68.83;101308.75;4978382;28;20047;-75
2023/04/13 02:52:49;;;;;;;1.00;0.40;;;;;;;9.95;70.31;101312.03;4986851;28;20073;-74
2023/04/13 02:55:18;;;;;;;0.35;0.30;;;;;;;9.92;69.81;101316.19;4985020;28;20053;-74
2023/04/13 02:57:46;;;;;;;0.47;0.35;;;;;;;9.91;71.16;101317.00;4986299;28;20060;-75
2023/04/13 03:00:16;;;;;;;0.65;0.30;;;;;;;9.91;72.50;101323.06;4980315;28;20062;-73
2023/04/13 03:02:47;;;;;;;1.30;0.43;;;;;;;9.92;72.20;101334.28;4981176;28;20042;-75
2023/04/13 03:05:16;;;;;;;0.68;0.60;;;;;;;9.90;70.56;101335.94;4970638;28;20542;-74
2023/04/13 03:07:44;;;;;;;2.35;0.50;;;;;;;9.90;70.51;101339.41;4980356;28;20510;-77
2023/04/13 03:10:13;;;;;;;3.03;0.60;;;;;;;9.85;70.69;101334.03;4978536;28;20092;-74
2023/04/13 03:12:43;;;;;;;0.63;0.50;;;;;;;9.76;71.27;101320.75;4981988;28;20050;-74
2023/04/13 03:15:13;;;;;;;0.50;0.45;;;;;;;9.84;70.57;101346.88;4980505;28;20113;-74
2023/04/13 03:17:43;;;;;;;1.73;0.60;;;;;;;9.83;71.94;101346.00;4984425;28;20533;-75
2023/04/13 03:20:15;;;;;;;1.17;0.80;;;;;;;9.81;71.36;101352.81;4987901;28;20046;-75
2023/04/13 03:22:44;;;;;;;0.77;0.45;;;;;;;9.77;70.92;101356.09;4982418;28;20061;-75
2023/04/13 03:25:13;;;;;;;1.42;0.70;;;;;;;9.73;72.11;101367.09;4995545;28;20069;-74
2023/04/13 03:27:42;;;;;;;1.55;0.50;;;;;;;9.69;72.49;101364.31;4984553;28;20042;-75
2023/04/13 03:30:12;;;;;;;1.08;0.63;;;;;;;9.68;73.66;101367.75;4987995;28;20050;-75
2023/04/13 03:32:40;;;;;;;0.82;0.60;;;;;;;9.65;73.66;101374.53;4987310;28;20046;-74
2023/04/13 03:35:11;;;;;;;0.57;0.50;;;;;;;9.61;74.90;101369.16;4988056;28;20070;-75
2023/04/13 03:37:42;;;;;;;0.50;0.40;;;;;;;9.56;77.46;101386.19;4986573;28;20091;-73
2023/04/13 03:40:11;;;;;;;1.10;0.55;;;;;;;9.46;78.24;101381.41;4987162;28;20511;-74
2023/04/13 03:42:40;;;;;;;2.63;0.50;;;;;;;9.40;77.51;101385.50;4979654;28;20061;-74
2023/04/13 03:45:10;;;;;;;1.55;0.70;;;;;;;9.31;78.52;101387.66;4988831;28;20050;-74
2023/04/13 03:47:39;;;;;;;1.73;0.60;;;;;;;9.20;79.15;101386.31;4985955;28;20921;-75
2023/04/13 03:50:09;;;;;;;1.17;0.45;;;;;;;9.17;79.03;101401.66;4989130;28;20072;-75
2023/04/13 03:52:38;;;;;;;0.70;0.30;;;;;;;9.13;78.78;101394.59;4986087;28;20050;-75
2023/04/13 03:55:09;;;;;;;1.63;0.85;;;;;;;9.02;79.08;101396.69;4985746;28;20046;-74
2023/04/13 03:57:38;;;;;;;1.13;0.20;;;;;;;8.96;80.63;101407.63;4982042;28;20543;-75
2023/04/13 04:00:13;;;;;;;0.80;0.50;;;;;;;8.94;81.02;101408.38;4989849;28;20554;-75
2023/04/13 04:02:42;;;;;;;1.38;0.60;;;;;;;8.94;79.80;101409.25;4986272;28;20266;-75
2023/04/13 04:05:11;;;;;;;0.75;0.43;;;;;;;8.85;79.76;101408.81;4990103;28;20054;-75
2023/04/13 04:07:39;;;;;;;1.00;0.40;;;;;;;8.80;80.79;101415.47;4984883;28;20440;-76
2023/04/13 04:10:11;;;;;;;0.60;0.47;;;;;;;8.78;81.38;101417.06;4987335;28;20496;-75
2023/04/13 04:12:40;;;;;;;3.20;0.87;;;;;;;8.76;82.12;101419.56;4984865;28;20054;-75
2023/04/13 04:15:10;;;;;;;1.15;0.70;;;;;;;8.74;81.92;101425.47;4988917;28;20605;-75
2023/04/13 04:17:38;;;;;;;0.57;0.40;;;;;;;8.66;84.78;101427.72;4985500;28;20138;-75
2023/04/13 04:20:09;;;;;;;0.60;0.57;;;;;;;8.46;84.17;101407.81;4989263;28;20157;-76
2023/04/13 04:22:38;;;;;;;0.75;0.32;;;;;;;8.45;85.51;101432.69;4986147;28;20079;-76
2023/04/13 04:25:07;;;;;;;0.45;0.22;;;;;;;8.41;87.97;101430.78;4986862;28;20143;-74
2023/04/13 04:27:38;;;;;;;1.20;0.68;;;;;;;8.40;86.65;101434.16;4990039;28;20054;-73
2023/04/13 04:30:09;;;;;;;0.68;0.40;;;;;;;8.38;86.95;101428.00;4997444;28;20753;-75
2023/04/13 04:32:39;;;;;;;0.68;0.50;;;;;;;8.36;89.52;101430.53;4970213;28;20054;-74
2023/04/13 04:35:09;;;;;;;1.00;0.57;;;;;;;8.28;90.26;101439.56;4986299;28;20047;-74
2023/04/13 04:37:37;;;;;;;0.70;0.40;;;;;;;8.25;89.51;101444.59;4984875;28;20097;-74
2023/04/13 04:40:08;;;;;;;1.15;0.60;;;;;;;8.20;89.58;101438.31;4985183;28;20051;-76
2023/04/13 04:42:38;;;;;;;4.07;0.40;;;;;;;8.11;89.95;101438.72;4984584;28;20105;-74
2023/04/13 04:45:08;;;;;;;2.22;0.70;;;;;;;8.06;89.02;101439.28;4985230;28;20412;-74
2023/04/13 04:47:40;;;;;;;1.90;0.70;;;;;;;8.03;88.45;101442.59;4982986;28;20054;-75
2023/04/13 04:50:10;;;;;;;1.13;0.80;;;;;;;7.97;87.94;101453.50;4992242;28;20108;-74
2023/04/13 04:52:38;;;;;;;1.65;0.90;;;;;;;7.92;88.95;101448.91;4985848;28;20205;-73
2023/04/13 04:55:08;;;;;;;5.00;1.00;;;;;;;7.86;88.86;101443.47;4986295;28;20386;-74
2023/04/13 04:57:39;;;;;;;1.30;0.85;;;;;;;7.79;88.84;101447.41;4982899;28;20354;-75
2023/04/13 05:00:14;;;;;;;1.80;0.68;;;;;;;7.78;88.80;101455.91;4986961;28;20125;-74
2023/04/13 05:02:42;;;;;;;0.52;0.40;;;;;;;7.73;89.63;101455.69;4983907;28;20058;-74
2023/04/13 05:05:12;;;;;;;2.15;0.40;;;;;;;7.66;89.80;101445.88;4983484;28;20050;-74
2023/04/13 05:07:40;;;;;;;0.95;0.85;;;;;;;7.59;89.93;101448.94;4985863;28;20083;-74
2023/04/13 05:10:10;;;;;;;0.75;0.45;;;;;;;7.50;90.86;101454.47;4983761;28;20756;-74
2023/04/13 05:12:40;;;;;;;0.60;0.50;;;;;;;7.41;93.29;101458.25;4982331;28;20046;-74
2023/04/13 05:15:10;;;;;;;1.58;0.55;;;;;;;7.31;94.65;101452.63;4973835;28;20051;-75
2023/04/13 05:17:40;;;;;;;3.75;1.30;;;;;;;7.30;93.98;101458.56;4982783;28;20372;-75
2023/04/13 05:20:09;;;;;;;1.25;1.00;;;;;;;7.26;94.11;101455.72;4988109;28;20050;-75
2023/04/13 05:22:38;;;;;;;2.15;0.70;;;;;;;7.26;93.50;101459.22;4978591;28;20049;-74
2023/04/13 05:25:08;;;;;;;2.50;0.73;;;;;;;7.17;92.82;101448.41;4988049;28;20065;-75
2023/04/13 05:27:37;;;;;;;1.38;0.70;;;;;;;7.19;92.93;101457.09;4980955;28;20050;-76
2023/04/13 05:30:09;;;;;;;2.67;0.90;;;;;;;7.18;93.14;101455.31;4985011;28;20781;-75
2023/04/13 05:32:38;;;;;;;1.77;0.88;;;;;;;7.16;93.60;101462.06;4986095;28;20065;-75
2023/04/13 05:35:09;;;;;;;2.00;0.82;;;;;;;7.12;92.82;101453.31;4981635;28;20046;-73
2023/04/13 05:37:38;;;;;;;2.50;1.20;;;;;;;7.08;93.27;101448.81;4987022;28;20046;-74
2023/04/13 05:40:12;;;;;;;2.15;1.30;;;;;;;7.04;93.65;101440.81;4986026;28;20054;-75
2023/04/13 05:42:42;;;;;;;2.80;1.13;;;;;;;7.01;93.14;101443.22;4979163;28;20588;-75
2023/04/13 05:45:15;;;;;;;4.30;1.38;;;;;;;6.95;92.41;101451.50;4980747;28;20057;-76
2023/04/13 05:47:44;;;;;;;2.72;0.70;;;;;;;6.91;91.86;101444.41;4980527;28;20047;-76
2023/04/13 05:50:13;;;;;;;2.22;1.02;;;;;;;6.87;93.25;101439.88;4978511;28;20074;-74
2023/04/13 05:52:42;;;;;;;1.20;0.85;;;;;;;6.82;93.24;101439.63;4984675;28;20046;-75
2023/04/13 05:55:12;;;;;;;2.03;0.82;;;;;;;6.78;93.48;101440.28;4987060;28;20054;-75
2023/04/13 05:57:40;;;;;;;1.73;0.85;;;;;;;6.75;93.08;101446.94;4987342;28;20046;-73
2023/04/13 06:00:12;;;;;;;2.28;0.80;;;;;;;6.67;93.29;101437.09;4987889;28;20054;-73
2023/04/13 06:02:42;;;;;;;1.95;0.90;;;;;;;6.62;92.49;101437.63;4972671;28;20061;-73
2023/04/13 06:05:12;;;;;;;2.05;0.93;;;;;;;6.47;94.52;101430.81;4978692;28;20047;-72
2023/04/13 06:07:43;;;;;;;0.90;0.70;;;;;;;6.32;95.23;101435.09;4984109;28;20164;-73
2023/04/13 06:10:13;;;;;;;1.60;0.75;;;;;;;6.17;95.96;101429.09;4983929;28;20507;-73
2023/04/13 06:12:41;;;;;;;1.73;1.02;;;;;;;6.12;96.54;101430.50;4984878;28;20050;-73
2023/04/13 06:15:12;;;;;;;4.82;1.10;;;;;;;6.10;96.54;101429.53;4982071;28;20051;-72
2023/04/13 06:17:41;;;;;;;3.08;0.77;;;;;;;6.10;95.08;101437.22;4979792;28;20114;-73
2023/04/13 06:20:11;;;;;;;2.05;1.02;;;;;;;6.09;94.55;101431.19;4987897;28;20550;-73
2023/04/13 06:22:40;;;;;;;2.10;0.98;;;;;;;6.06;94.18;101424.19;4978284;28;20050;-73
2023/04/13 06:25:10;;;;;;;5.97;1.27;;;;;;;6.00;93.69;101416.16;4981513;28;20042;-73
2023/04/13 06:27:39;;;;;;;1.05;0.77;;;;;;;5.98;93.25;101428.00;4984107;28;20054;-73
2023/04/13 06:30:09;;;;;;;4.38;1.73;;;;;;;5.92;93.23;101422.47;4985109;28;20677;-73
2023/04/13 06:32:40;;;;;;;5.88;2.53;;;;;;;5.92;94.24;101432.75;4978365;28;20055;-73
2023/04/13 06:35:09;;;;;;;2.15;1.45;;;;;;;5.88;94.05;101434.22;4980647;28;20070;-73
2023/04/13 06:37:38;;;;;;;6.47;3.58;;;;;;;5.85;94.86;101430.63;4987439;28;20051;-72
2023/04/13 06:40:11;;;;;;;8.10;3.58;;;;;;;5.83;94.93;101430.50;4985963;28;20133;-73
2023/04/13 06:42:40;;;;;;;6.28;2.75;;;;;;;5.79;95.13;101430.25;4981051;28;20051;-73
2023/04/13 06:45:10;;;;;;;6.28;2.58;;;;;;;5.81;94.92;101444.06;4989336;28;20046;-72
2023/04/13 06:47:41;;;;;;;3.33;1.83;;;;;;;5.71;94.76;101446.88;4986488;28;20077;-73
2023/04/13 06:50:12;;;;;;;4.80;2.17;;;;;;;5.61;94.73;101441.19;4989726;28;20078;-73
2023/04/13 06:52:43;;;;;;;4.18;1.70;;;;;;;5.48;96.95;101454.06;4982471;28;20054;-73
2023/04/13 06:55:12;;;;;;;3.13;1.80;;;;;;;5.42;97.85;101444.31;4983690;28;20661;-73
2023/04/13 06:57:42;;;;;;;4.35;2.08;;;;;;;5.41;98.53;101446.78;4989649;28;20092;-73
2023/04/13 07:00:13;;;;;;;3.22;1.67;;;;;;;5.32;98.36;101447.13;4988439;28;20371;-72
2023/04/13 07:02:47;;;;;;;5.45;1.70;;;;;;;5.23;98.94;101443.97;4988860;28;20084;-73
2023/04/13 07:05:15;;;;;;;4.35;1.88;;;;;;;5.19;98.70;101455.72;4989661;28;20054;-73
2023/04/13 07:07:51;;;;;;;3.60;1.40;;;;;;;5.10;98.41;101450.00;4985100;28;20115;-73
2023/04/13 07:10:19;;;;;;;6.85;1.95;;;;;;;5.12;98.25;101452.69;4986723;28;20052;-73
2023/04/13 07:12:48;;;;;;;2.38;1.48;;;;;;;5.02;97.51;101433.28;4985129;28;20130;-74
2023/04/13 07:15:17;;;;;;;4.22;1.45;;;;;;;5.11;96.75;101454.38;4985947;28;20124;-73
2023/04/13 07:17:48;;;;;;;3.83;2.08;;;;;;;5.09;95.99;101453.38;4983574;28;20038;-73
2023/04/13 07:20:16;;;;;;;2.28;1.60;;;;;;;5.07;95.48;101454.97;4982169;28;20180;-73
2023/04/13 07:22:45;;;;;;;4.68;1.95;;;;;;;5.03;96.43;101453.88;4985459;28;20050;-73
2023/04/13 07:25:14;;;;;;;2.78;1.30;;;;;;;5.02;96.32;101449.53;4984588;28;20082;-72
2023/04/13 07:27:43;;;;;;;2.53;1.38;;;;;;;5.01;95.55;101455.44;4984129;28;21217;-73
2023/04/13 07:30:12;;;;;;;2.55;1.17;;;;;;;4.96;94.80;101454.28;4990917;28;20131;-73
2023/04/13 07:32:41;;;;;;;2.78;1.23;;;;;;;4.94;95.21;101457.53;4987512;28;20042;-73
2023/04/13 07:35:11;;;;;;;3.05;1.75;;;;;;;4.94;96.26;101462.66;4985153;28;20050;-73
2023/04/13 07:37:41;;;;;;;2.83;1.40;;;;;;;4.89;96.62;101453.81;4988100;28;20047;-72
2023/04/13 07:40:10;;;;;;;3.65;1.63;;;;;;;4.93;97.49;101466.03;4986458;28;20960;-72
2023/04/13 07:42:39;;;;;;;4.40;1.70;;;;;;;4.91;97.61;101458.22;4978733;28;20054;-72
2023/04/13 07:45:09;;;;;;;4.68;1.88;;;;;;;4.89;96.67;101462.38;4986847;28;20042;-73
2023/04/13 07:47:38;;;;;;;4.78;1.50;;;;;;;4.84;97.07;101458.63;4981280;28;20492;-73
2023/04/13 07:50:08;;;;;;;5.28;2.05;;;;;;;4.84;97.40;101458.63;4987318;28;20061;-72
2023/04/13 07:52:38;;;;;;;3.28;1.48;;;;;;;4.82;97.76;101463.66;4984442;28;20054;-73
2023/04/13 07:55:08;;;;;;;8.40;2.35;;;;;;;4.81;97.41;101467.03;4987272;28;20054;-73
2023/04/13 07:57:37;;;;;;;4.05;1.95;;;;;;;4.76;96.86;101465.81;4983350;28;20596;-72
2023/04/13 08:00:07;;;;;;;5.53;1.92;;;;;;;4.73;97.44;101475.88;4991475;28;20076;-72
2023/04/13 08:02:36;;;;;;;4.22;1.90;;;;;;;4.68;97.06;101478.97;4987975;28;20054;-73
2023/04/13 08:05:05;;;;;;;4.80;1.85;;;;;;;4.53;99.01;101483.97;4987318;28;20271;-73
2023/04/13 08:07:34;;;;;;;5.75;1.83;;;;;;;4.38;99.52;101491.53;4986018;28;20058;-72
2023/04/13 08:10:05;;;;;;;3.45;1.45;;;;;;;4.30;99.97;101485.88;4986952;28;20567;-70
2023/04/13 08:12:34;;;;;;;1.80;1.13;;;;;;;4.22;99.80;101491.31;4967721;28;20049;-71
2023/04/13 08:15:03;;;;;;;5.28;1.25;;;;;;;4.10;100.00;101476.91;4984800;28;20137;-74
2023/04/13 08:17:32;;;;;;;2.67;1.63;;;;;;;4.19;100.00;101479.16;4988144;28;20452;-72
2023/04/13 08:20:01;;;;;;;4.80;1.67;;;;;;;4.21;100.00;101485.28;4985740;28;20058;-72
2023/04/13 08:22:30;;;;;;;1.83;1.30;;;;;;;4.23;100.00;101478.59;4987963;28;20050;-72
2023/04/13 08:24:58;;;;;;;2.63;1.42;;;;;;;4.18;98.61;101467.16;4985426;28;20938;-72
2023/04/13 08:27:29;;;;;;;2.85;1.48;;;;;;;4.21;99.13;101477.59;4983494;28;20047;-73
2023/04/13 08:30:00;;;;;;;3.33;1.98;;;;;;;4.10;98.44;101455.50;4990113;28;20072;-74
2023/04/13 08:32:29;;;;;;;3.20;1.55;;;;;;;4.16;98.27;101472.16;4985396;28;20057;-73
2023/04/13 08:34:58;;;;;;;4.22;1.27;;;;;;;4.18;98.56;101474.84;4983367;28;20054;-73
2023/04/13 08:37:32;;;;;;;2.80;1.20;;;;;;;4.17;98.10;101479.09;4979964;28;20085;-73
2023/04/13 08:40:01;;;;;;;6.97;2.63;;;;;;;4.14;97.75;101470.28;4992930;28;20145;-74
2023/04/13 08:42:32;;;;;;;3.83;1.52;;;;;;;4.07;98.52;101460.44;4986172;28;20049;-74
2023/04/13 08:45:01;;;;;;;4.07;1.55;;;;;;;4.07;99.11;101453.63;4987562;28;20050;-73
2023/04/13 08:47:31;;;;;;;3.70;1.88;;;;;;;3.99;99.79;101426.63;4991371;28;20109;-71
2023/04/13 08:50:00;;;;;;;2.67;1.63;;;;;;;4.10;99.28;101451.28;4988487;28;21003;-74
2023/04/13 08:52:29;;;;;;;3.67;1.08;;;;;;;4.06;99.13;101448.41;4987027;28;20061;-73
2023/04/13 08:54:59;;;;;;;4.15;1.27;;;;;;;4.00;99.97;101438.63;4981299;28;20076;-73
2023/04/13 08:57:30;;;;;;;3.28;1.58;;;;;;;3.94;99.51;101439.13;4983283;28;20556;-72
2023/04/13 09:00:00;;;;;;;1.75;1.02;;;;;;;3.86;99.53;101442.84;4986327;28;20492;-74
2023/04/13 09:02:33;;;;;;;1.52;1.00;;;;;;;3.78;100.00;101442.34;4981625;28;20056;-73
2023/04/13 09:05:05;;;;;;;2.63;1.40;;;;;;;3.72;100.00;101430.78;5195312;23;20052;-72
2023/04/13 09:07:37;;;;;;;2.10;1.15;;;;;;;3.80;100.00;101437.28;5026311;28;20118;-72
2023/04/13 09:10:07;;;;;;;3.80;0.90;;;;;;;3.80;100.00;101432.16;5023486;28;20111;-71
2023/04/13 09:12:40;;;;;;;2.05;1.27;;;;;;;3.81;100.00;101433.09;5022316;28;20505;-72
2023/04/13 09:15:12;;;;;;;2.25;1.08;;;;;;;3.81;99.42;101436.53;5018592;28;20072;-72
2023/04/13 09:17:41;;;;;;;1.88;1.10;;;;;;;3.81;98.58;101439.09;5016013;28;20050;-73
2023/04/13 09:20:15;;;;;;;1.90;0.88;;;;;;;3.78;97.85;101432.09;5013503;28;20042;-72
2023/04/13 09:22:44;;;;;;;2.47;1.70;;;;;;;3.76;98.37;101432.78;5015736;28;20050;-72
2023/04/13 09:25:23;;;;;;;1.77;1.13;;;;;;;3.74;97.72;101432.66;5019571;28;20061;-72
2023/04/13 09:27:54;;;;;;;2.42;1.48;;;;;;;3.72;98.45;101430.78;5017300;28;20615;-72
2023/04/13 09:30:24;;;;;;;6.07;1.38;;;;;;;3.70;97.87;101427.22;5020142;28;20052;-72
2023/04/13 09:33:06;;;;;;;1.88;1.48;;;;;;;3.68;98.20;101434.78;5013466;28;20129;-72
2023/04/13 09:35:36;;;;;;;2.72;1.25;;;;;;;3.67;97.61;101427.03;5015135;28;20558;-72
2023/04/13 09:38:06;;;;;;;3.83;1.25;;;;;;;3.64;98.09;101430.28;5022369;28;20077;-73
2023/04/13 09:40:37;;;;;;;3.00;1.40;;;;;;;3.62;97.85;101431.84;5025798;28;20088;-73
2023/04/13 09:43:08;;;;;;;2.60;1.73;;;;;;;3.61;98.02;101431.72;5026049;28;20057;-72
2023/04/13 09:45:38;;;;;;;5.07;2.10;;;;;;;3.60;98.15;101435.06;5023191;28;20050;-71
2023/04/13 09:48:17;;;;;;;5.03;1.10;;;;;;;3.56;98.23;101434.84;5019552;28;20057;-72
2023/04/13 09:50:46;;;;;;;1.98;1.23;;;;;;;3.51;98.00;101436.22;5022282;28;20060;-72
2023/04/13 09:53:23;;;;;;;2.88;1.63;;;;;;;3.49;97.55;101429.22;5014934;28;20565;-72
2023/04/13 09:55:58;;;;;;;3.40;1.27;;;;;;;3.47;97.92;101434.22;5026958;28;20045;-71
2023/04/13 09:58:30;;;;;;;2.63;1.27;;;;;;;3.46;98.55;101435.03;5019709;28;20640;-72
2023/04/13 10:01:00;;;;;;;2.97;1.70;;;;;;;3.46;97.73;101424.78;5025965;28;20049;-72
2023/04/13 10:03:30;;;;;;;4.80;1.55;;;;;;;3.44;97.33;101421.22;5016321;28;20053;-72
2023/04/13 10:06:06;;;;;;;4.72;1.42;;;;;;;3.42;97.72;101422.78;5006856;28;20081;-72
2023/04/13 10:08:43;;;;;;;5.30;1.50;;;;;;;3.41;97.71;101418.44;5005538;28;20127;-72
2023/04/13 10:11:14;;;;;;;1.98;1.00;;;;;;;3.40;97.90;101419.25;5003351;28;20046;-73
2023/04/13 10:13:50;;;;;;;2.22;0.98;;;;;;;3.39;98.12;101420.03;5007685;28;20042;-72
2023/04/13 10:16:40;;;;;;;2.05;1.13;;;;;;;3.38;98.44;101415.69;5004626;28;20050;-73
2023/04/13 10:19:13;;;;;;;3.63;1.50;;;;;;;3.37;97.92;101408.81;5007576;28;20393;-72
2023/04/13 10:21:46;;;;;;;2.78;0.85;;;;;;;3.33;97.57;101414.47;4992124;28;20050;-73
2023/04/13 10:24:14;;;;;;;;;;;;;;;3.28;97.21;101410.72;5006573;28;20058;-72
2023/04/13 10:26:44;;;;;;;0.55;0.35;;;;;;;3.26;98.26;101407.19;5009184;28;19925;-72
2023/04/13 10:29:15;;;;;;;3.28;0.95;;;;;;;3.15;97.57;101389.41;5011221;28;20121;-72
2023/04/13 10:31:46;;;;;;;1.15;0.70;;;;;;;3.14;97.65;101381.66;5007772;28;20050;-73
2023/04/13 10:34:25;;;;;;;0.90;0.55;;;;;;;3.22;97.26;101402.63;5011349;28;20095;-72
2023/04/13 10:36:56;;;;;;;3.72;0.65;;;;;;;3.21;98.46;101400.81;5002266;28;20077;-72
2023/04/13 10:39:26;;;;;;;1.48;0.80;;;;;;;3.20;98.67;101401.63;5002619;28;20050;-72
2023/04/13 10:42:02;;;;;;;1.35;0.82;;;;;;;3.17;98.53;101404.84;5008698;28;20144;-72
2023/04/13 10:44:42;;;;;;;2.45;0.80;;;;;;;3.12;97.90;101399.44;5005737;28;20423;-71
2023/04/13 10:47:11;;;;;;;4.25;1.02;;;;;;;3.11;98.09;101396.75;5011881;28;20049;-72
2023/04/13 10:49:40;;;;;;;2.90;1.25;;;;;;;3.10;98.02;101406.09;5009504;28;20069;-72
2023/04/13 10:52:11;;;;;;;2.25;1.00;;;;;;;3.10;98.14;101400.09;5005045;28;20723;-73
2023/04/13 10:54:41;;;;;;;3.72;1.00;;;;;;;3.06;98.20;101404.09;5010220;28;20046;-73
2023/04/13 10:57:11;;;;;;;0.75;0.70;;;;;;;3.07;98.77;101412.66;5008742;28;20495;-72
2023/04/13 10:59:48;;;;;;;1.45;0.70;;;;;;;3.09;99.27;101411.09;5002396;28;20077;-72
2023/04/13 11:02:18;;;;;;;2.22;0.75;;;;;;;3.10;100.00;101407.78;5004622;28;20065;-73
2023/04/13 11:04:48;;;;;;;2.70;1.08;;;;;;;3.12;100.00;101413.88;5008458;28;20606;-72
2023/04/13 11:07:18;;;;;;;0.73;0.70;;;;;;;3.14;100.00;101413.22;5007735;28;20517;-72
2023/04/13 11:09:49;;;;;;;1.58;1.17;;;;;;;3.17;100.00;101421.88;5011873;28;20399;-72
2023/04/13 11:12:18;;;;;;;3.63;1.80;;;;;;;3.19;100.00;101421.19;5014491;28;20074;-72
2023/04/13 11:14:50;;;;;;;0.63;0.52;;;;;;;3.22;100.00;101415.41;5011385;28;20060;-72
2023/04/13 11:17:19;;;;;;;4.72;1.05;;;;;;;3.24;100.00;101424.97;5014977;28;20050;-72
2023/04/13 11:19:48;;;;;;;1.88;0.77;;;;;;;3.25;100.00;101428.41;5008397;28;20061;-72
2023/04/13 11:22:18;;;;;;;1.80;0.98;;;;;;;3.29;100.00;101432.94;5001602;28;20054;-72
2023/04/13 11:24:47;;;;;;;1.80;0.82;;;;;;;3.29;100.00;101427.84;5014672;28;20053;-72
2023/04/13 11:27:20;;;;;;;3.42;1.15;;;;;;;3.32;100.00;101428.03;5011747;28;20560;-72
2023/04/13 11:29:57;;;;;;;;;;;;;;;3.34;100.00;101431.59;5010192;28;20081;-72
2023/04/13 11:32:26;;;;;;;1.17;0.77;;;;;;;3.35;100.00;101428.28;5002472;28;20383;-72
2023/04/13 11:35:06;;;;;;;2.53;0.82;;;;;;;3.32;100.00;101438.28;5009746;28;20427;-72
2023/04/13 11:37:38;;;;;;;1.83;1.23;;;;;;;3.29;100.00;101433.84;5006870;28;20045;-73
2023/04/13 11:40:13;;;;;;;5.82;1.60;;;;;;;3.31;100.00;101431.41;5003550;28;20042;-72
2023/04/13 11:42:44;;;;;;;1.70;1.02;;;;;;;3.34;100.00;101431.59;5003629;28;20042;-73
2023/04/13 11:45:16;;;;;;;3.60;0.70;;;;;;;3.38;100.00;101427.59;5000835;28;20056;-72
2023/04/13 11:47:45;;;;;;;3.10;1.30;;;;;;;3.40;100.00;101423.47;4999522;28;20602;-72